createdAt,value
2022-11-17T00:00:23.182Z,8.63
2022-11-17T00:02:50.481Z,8.69
2022-11-17T00:05:17.534Z,8.63
2022-11-17T00:07:45.690Z,8.65
2022-11-17T00:10:13.518Z,8.50
2022-11-17T00:12:58.771Z,8.61
2022-11-17T00:15:25.607Z,8.57
2022-11-17T00:18:15.714Z,8.45
2022-11-17T00:21:01.075Z,8.38
2022-11-17T00:23:47.446Z,8.22
2022-11-17T00:26:35.804Z,8.48
2022-11-17T00:29:05.013Z,8.43
2022-11-17T00:31:54.384Z,8.61
2022-11-17T00:34:22.949Z,8.63
2022-11-17T00:36:51.889Z,8.65
2022-11-17T00:39:21.349Z,8.52
2022-11-17T00:41:48.485Z,8.64
2022-11-17T00:44:15.632Z,8.60
2022-11-17T00:46:45.063Z,8.71
2022-11-17T00:49:12.279Z,8.93
2022-11-17T00:51:39.268Z,8.67
2022-11-17T00:54:10.096Z,8.72
2022-11-17T00:56:37.033Z,8.64
2022-11-17T00:59:04.160Z,8.82
2022-11-17T01:01:31.514Z,8.79
2022-11-17T01:04:04.688Z,8.82
2022-11-17T01:06:36.466Z,8.90
2022-11-17T01:09:15.411Z,8.97
2022-11-17T01:11:42.884Z,8.82
2022-11-17T01:14:14.861Z,8.86
2022-11-17T01:16:46.211Z,8.72
2022-11-17T01:19:16.741Z,8.64
2022-11-17T01:21:43.846Z,8.72
2022-11-17T01:24:11.752Z,8.72
2022-11-17T01:26:39.926Z,8.91
2022-11-17T01:29:07.522Z,8.81
2022-11-17T01:31:46.195Z,8.82
2022-11-17T01:34:13.584Z,8.75
2022-11-17T01:37:02.459Z,8.66
2022-11-17T01:39:30.913Z,8.65
2022-11-17T01:41:58.622Z,8.69
2022-11-17T01:44:50.523Z,8.76
2022-11-17T01:47:33.010Z,8.78
2022-11-17T01:50:26.754Z,8.71
2022-11-17T01:52:57.599Z,8.86
2022-11-17T01:55:28.730Z,8.85
2022-11-17T01:58:05.905Z,8.73
2022-11-17T02:00:32.964Z,8.74
2022-11-17T02:03:00.467Z,8.61
2022-11-17T02:05:54.525Z,8.66
2022-11-17T02:08:24.500Z,8.85
2022-11-17T02:10:53.366Z,8.58
2022-11-17T02:13:23.890Z,8.93
2022-11-17T02:15:50.652Z,8.95
2022-11-17T02:18:18.180Z,8.78
2022-11-17T02:21:18.954Z,9.01
2022-11-17T02:23:45.598Z,8.97
2022-11-17T02:26:20.970Z,8.37
2022-11-17T02:29:37.854Z,7.76
2022-11-17T02:32:13.584Z,7.84
2022-11-17T02:34:54.029Z,7.86
2022-11-17T02:37:42.519Z,7.64
2022-11-17T02:40:14.136Z,7.86
2022-11-17T02:43:03.507Z,8.21
2022-11-17T02:45:40.341Z,7.84
2022-11-17T02:48:14.592Z,7.79
2022-11-17T02:50:44.798Z,7.94
2022-11-17T02:53:13.474Z,7.45
2022-11-17T02:55:40.392Z,7.55
2022-11-17T02:58:12.570Z,7.71
2022-11-17T03:00:50.858Z,7.75
2022-11-17T03:03:32.585Z,7.55
2022-11-17T03:06:20.156Z,7.42
2022-11-17T03:08:59.947Z,7.42
2022-11-17T03:11:42.660Z,7.30
2022-11-17T03:14:22.998Z,7.33
2022-11-17T03:17:05.625Z,7.47
2022-11-17T03:19:35.646Z,7.72
2022-11-17T03:22:15.037Z,7.82
2022-11-17T03:24:51.092Z,7.83
2022-11-17T03:27:32.810Z,7.69
2022-11-17T03:30:03.403Z,7.62
2022-11-17T03:32:36.266Z,7.77
2022-11-17T03:35:11.099Z,7.53
2022-11-17T03:37:43.188Z,7.60
2022-11-17T03:40:13.720Z,7.52
2022-11-17T03:42:52.525Z,7.39
2022-11-17T03:45:26.678Z,7.49
2022-11-17T03:48:03.010Z,7.39
2022-11-17T03:50:37.897Z,7.37
2022-11-17T03:53:05.909Z,7.18
2022-11-17T03:55:57.833Z,7.17
2022-11-17T03:58:29.735Z,7.26
2022-11-17T04:01:00.022Z,7.41
2022-11-17T04:03:32.179Z,7.19
2022-11-17T04:05:59.943Z,7.16
2022-11-17T04:08:29.629Z,7.36
2022-11-17T04:11:18.522Z,6.97
2022-11-17T04:14:03.737Z,6.86
2022-11-17T04:16:30.758Z,7.28
2022-11-17T04:18:58.825Z,7.19
2022-11-17T04:21:26.288Z,7.06
2022-11-17T04:23:53.038Z,7.03
2022-11-17T04:26:38.543Z,6.96
2022-11-17T04:29:05.274Z,6.64
2022-11-17T04:31:32.089Z,6.77
2022-11-17T04:34:06.574Z,6.89
2022-11-17T04:36:40.688Z,6.88
2022-11-17T04:39:07.569Z,6.99
2022-11-17T04:41:57.247Z,7.04
2022-11-17T04:44:26.683Z,7.20
2022-11-17T04:46:54.618Z,7.35
2022-11-17T04:49:23.024Z,7.59
2022-11-17T04:51:50.766Z,7.52
2022-11-17T04:54:20.789Z,7.55
2022-11-17T04:56:48.335Z,7.47
2022-11-17T04:59:15.091Z,7.41
2022-11-17T05:01:42.340Z,7.08
2022-11-17T05:04:11.266Z,7.27
2022-11-17T05:06:43.641Z,7.32
2022-11-17T05:09:17.283Z,7.23
2022-11-17T05:12:03.083Z,7.32
2022-11-17T05:14:30.078Z,7.19
2022-11-17T05:17:11.002Z,7.11
2022-11-17T05:19:46.624Z,7.21
2022-11-17T05:22:36.200Z,6.67
2022-11-17T05:25:04.290Z,7.00
2022-11-17T05:27:31.102Z,6.90
2022-11-17T05:29:58.079Z,6.96
2022-11-17T05:32:25.218Z,6.67
2022-11-17T05:34:51.858Z,6.82
2022-11-17T05:37:18.470Z,6.48
2022-11-17T05:39:45.116Z,6.33
2022-11-17T05:42:14.878Z,6.54
2022-11-17T05:44:41.611Z,6.51
2022-11-17T05:47:08.093Z,6.41
2022-11-17T05:49:34.917Z,6.40
2022-11-17T05:52:01.621Z,6.53
2022-11-17T05:54:28.435Z,6.58
2022-11-17T05:57:05.140Z,6.29
2022-11-17T05:59:50.080Z,6.44
2022-11-17T06:02:21.274Z,6.71
2022-11-17T06:04:50.147Z,6.65
2022-11-17T06:07:18.151Z,6.31
2022-11-17T06:09:46.075Z,6.02
2022-11-17T06:12:13.350Z,6.31
2022-11-17T06:14:40.290Z,6.22
2022-11-17T06:17:23.179Z,6.47
2022-11-17T06:20:05.131Z,6.48
2022-11-17T06:22:33.297Z,6.39
2022-11-17T06:25:01.993Z,6.61
2022-11-17T06:27:31.905Z,6.64
2022-11-17T06:30:01.630Z,6.66
2022-11-17T06:32:28.669Z,6.88
2022-11-17T06:34:56.643Z,6.93
2022-11-17T06:37:24.712Z,6.98
2022-11-17T06:39:51.579Z,7.12
2022-11-17T06:42:18.634Z,7.10
2022-11-17T06:44:45.796Z,7.17
2022-11-17T06:47:12.432Z,7.04
2022-11-17T06:49:39.296Z,7.03
2022-11-17T06:52:05.950Z,7.15
2022-11-17T06:54:32.492Z,7.22
2022-11-17T06:57:00.034Z,6.96
2022-11-17T06:59:26.760Z,7.23
2022-11-17T07:01:53.286Z,6.94
2022-11-17T07:04:19.995Z,6.59
2022-11-17T07:06:46.521Z,6.50
2022-11-17T07:09:13.164Z,6.28
2022-11-17T07:11:39.885Z,6.41
2022-11-17T07:14:06.436Z,6.35
2022-11-17T07:16:33.089Z,6.09
2022-11-17T07:19:03.419Z,6.23
2022-11-17T07:21:30.136Z,6.16
2022-11-17T07:23:57.025Z,6.10
2022-11-17T07:26:26.889Z,6.17
2022-11-17T07:28:53.616Z,6.12
2022-11-17T07:31:20.275Z,6.34
2022-11-17T07:33:47.256Z,6.39
2022-11-17T07:36:17.321Z,6.36
2022-11-17T07:38:44.248Z,6.76
2022-11-17T07:41:13.846Z,6.78
2022-11-17T07:43:41.046Z,6.74
2022-11-17T07:46:12.519Z,6.66
2022-11-17T07:48:40.399Z,6.67
2022-11-17T07:51:07.323Z,6.77
2022-11-17T07:53:35.161Z,6.67
2022-11-17T07:56:07.501Z,6.69
2022-11-17T07:58:34.982Z,6.84
2022-11-17T08:01:14.630Z,6.60
2022-11-17T08:03:42.896Z,6.65
2022-11-17T08:06:10.262Z,6.49
2022-11-17T08:08:38.312Z,6.22
2022-11-17T08:11:08.672Z,6.37
2022-11-17T08:13:36.449Z,6.21
2022-11-17T08:16:03.662Z,6.09
2022-11-17T08:18:30.919Z,6.41
2022-11-17T08:21:02.510Z,6.06
2022-11-17T08:23:29.491Z,6.34
2022-11-17T08:25:56.308Z,6.57
2022-11-17T08:28:23.567Z,6.23
2022-11-17T08:30:50.630Z,6.08
2022-11-17T08:33:17.429Z,6.10
2022-11-17T08:35:44.301Z,6.09
2022-11-17T08:38:15.405Z,6.23
2022-11-17T08:40:42.534Z,6.13
2022-11-17T08:43:09.669Z,6.54
2022-11-17T08:45:36.313Z,6.13
2022-11-17T08:48:04.114Z,6.19
2022-11-17T08:50:30.826Z,6.25
2022-11-17T08:52:57.611Z,6.05
2022-11-17T08:55:26.317Z,5.96
2022-11-17T08:57:53.270Z,5.93
2022-11-17T09:00:21.872Z,6.27
2022-11-17T09:02:49.417Z,6.42
2022-11-17T09:05:16.109Z,6.29
2022-11-17T09:07:42.835Z,6.23
2022-11-17T09:10:11.223Z,6.31
2022-11-17T09:12:38.318Z,6.88
2022-11-17T09:15:06.303Z,6.65
2022-11-17T09:17:33.039Z,6.75
2022-11-17T09:20:00.095Z,6.56
2022-11-17T09:22:26.858Z,6.72
2022-11-17T09:24:53.588Z,6.67
2022-11-17T09:27:20.290Z,6.85
2022-11-17T09:29:48.170Z,7.08
2022-11-17T09:32:16.841Z,6.62
2022-11-17T09:34:43.573Z,6.42
2022-11-17T09:37:10.370Z,6.51
2022-11-17T09:39:40.730Z,6.78
2022-11-17T09:42:19.039Z,6.68
2022-11-17T09:45:03.927Z,6.53
2022-11-17T09:48:33.567Z,6.62
2022-11-17T09:50:55.031Z,6.58
2022-11-17T09:53:28.201Z,6.91
2022-11-17T09:56:03.016Z,6.60
2022-11-17T09:58:51.018Z,7.04
2022-11-17T10:01:20.108Z,6.85
2022-11-17T10:03:49.489Z,6.71
2022-11-17T10:06:21.432Z,6.57
2022-11-17T10:09:31.181Z,6.66
2022-11-17T10:12:14.717Z,6.57
2022-11-17T10:14:44.448Z,6.85
2022-11-17T10:17:12.815Z,6.84
2022-11-17T10:19:40.144Z,6.85
2022-11-17T10:22:07.153Z,6.96
2022-11-17T10:24:35.109Z,6.95
2022-11-17T10:27:07.124Z,7.06
2022-11-17T10:29:34.072Z,7.31
2022-11-17T10:32:09.591Z,7.42
2022-11-17T10:34:41.399Z,7.58
2022-11-17T10:37:20.127Z,7.72
2022-11-17T10:39:48.254Z,7.78
2022-11-17T10:42:21.312Z,7.82
2022-11-17T10:45:12.417Z,7.73
2022-11-17T10:47:40.549Z,7.72
2022-11-17T10:50:24.566Z,7.67
2022-11-17T10:52:53.673Z,7.71
2022-11-17T10:55:26.824Z,7.53
2022-11-17T10:57:57.905Z,7.26
2022-11-17T11:00:29.837Z,7.28
2022-11-17T11:03:21.521Z,7.47
2022-11-17T11:05:55.409Z,7.64
2022-11-17T11:08:25.141Z,7.47
2022-11-17T11:11:02.309Z,7.60
2022-11-17T11:13:40.676Z,7.79
2022-11-17T11:16:12.114Z,7.70
2022-11-17T11:18:39.874Z,7.53
2022-11-17T11:21:23.563Z,7.63
2022-11-17T11:24:24.274Z,7.58
2022-11-17T11:27:06.283Z,7.58
2022-11-17T11:30:01.330Z,7.86
2022-11-17T11:32:40.850Z,8.26
2022-11-17T11:35:38.680Z,8.17
2022-11-17T11:38:30.802Z,8.12
2022-11-17T11:41:36.459Z,8.15
2022-11-17T11:44:21.582Z,8.44
2022-11-17T11:47:07.246Z,8.21
2022-11-17T11:49:37.066Z,8.00
2022-11-17T11:52:10.704Z,8.06
2022-11-17T11:54:51.099Z,8.06
2022-11-17T11:57:25.021Z,8.17
2022-11-17T12:00:13.874Z,8.14
2022-11-17T12:02:40.707Z,8.00
2022-11-17T12:05:27.502Z,7.75
2022-11-17T12:08:32.198Z,8.26
2022-11-17T12:11:26.317Z,8.28
2022-11-17T12:13:57.742Z,8.59
2022-11-17T12:16:34.619Z,8.47
2022-11-17T12:19:01.923Z,8.98
2022-11-17T12:21:30.662Z,9.01
2022-11-17T12:24:18.812Z,8.99
2022-11-17T12:26:45.659Z,8.88
2022-11-17T12:29:21.595Z,8.69
2022-11-17T12:31:57.486Z,8.74
2022-11-17T12:34:37.229Z,8.67
2022-11-17T12:37:26.288Z,8.51
2022-11-17T12:39:52.966Z,8.49
2022-11-17T12:42:19.647Z,8.65
2022-11-17T12:44:46.555Z,8.72
2022-11-17T12:47:15.792Z,8.93
2022-11-17T12:49:42.265Z,8.86
2022-11-17T12:52:21.024Z,8.50
2022-11-17T12:55:01.056Z,8.58
2022-11-17T12:57:32.504Z,8.63
2022-11-17T13:00:11.956Z,8.87
2022-11-17T13:02:57.712Z,8.85
2022-11-17T13:05:28.571Z,8.65
2022-11-17T13:08:10.369Z,8.68
2022-11-17T13:10:37.219Z,8.41
2022-11-17T13:13:16.235Z,8.49
2022-11-17T13:15:44.271Z,8.71
2022-11-17T13:18:23.619Z,8.60
2022-11-17T13:20:50.261Z,8.64
2022-11-17T13:23:23.939Z,8.72
2022-11-17T13:25:51.382Z,8.69
2022-11-17T13:28:26.947Z,8.34
2022-11-17T13:30:53.819Z,8.55
2022-11-17T13:33:23.359Z,8.40
2022-11-17T13:35:51.557Z,8.36
2022-11-17T13:38:20.181Z,8.11
2022-11-17T13:40:49.326Z,8.20
2022-11-17T13:43:25.162Z,8.03
2022-11-17T13:45:53.894Z,8.14
2022-11-17T13:48:30.365Z,8.12
2022-11-17T13:51:16.107Z,8.30
2022-11-17T13:53:45.365Z,8.54
2022-11-17T13:56:36.581Z,8.12
2022-11-17T13:59:18.569Z,8.47
2022-11-17T14:01:45.711Z,8.57
2022-11-17T14:04:20.052Z,8.58
2022-11-17T14:06:54.393Z,8.66
2022-11-17T14:09:22.621Z,8.74
2022-11-17T14:11:50.477Z,8.25
2022-11-17T14:14:32.479Z,8.43
2022-11-17T14:17:11.144Z,8.35
2022-11-17T14:19:38.562Z,8.18
2022-11-17T14:22:09.823Z,8.14
2022-11-17T14:24:37.796Z,8.10
2022-11-17T14:27:34.977Z,8.09
2022-11-17T14:30:01.896Z,8.09
2022-11-17T14:32:28.717Z,7.99
2022-11-17T14:34:55.348Z,7.64
2022-11-17T14:37:23.385Z,7.69
2022-11-17T14:39:50.057Z,7.81
2022-11-17T14:42:16.908Z,7.85
2022-11-17T14:44:43.553Z,7.83
2022-11-17T14:47:10.119Z,7.60
2022-11-17T14:49:36.741Z,7.56
2022-11-17T14:52:03.365Z,7.57
2022-11-17T14:54:30.071Z,7.36
2022-11-17T14:56:56.570Z,7.42
2022-11-17T14:59:23.490Z,7.33
2022-11-17T15:01:50.153Z,7.27
2022-11-17T15:04:48.405Z,7.26
2022-11-17T15:07:03.590Z,7.38
2022-11-17T15:09:30.340Z,7.58
2022-11-17T15:11:56.881Z,7.44
2022-11-17T15:14:23.591Z,7.61
2022-11-17T15:16:50.173Z,7.42
2022-11-17T15:19:18.162Z,7.36
2022-11-17T15:21:44.972Z,7.53
2022-11-17T15:24:11.684Z,7.41
2022-11-17T15:26:38.328Z,7.52
2022-11-17T15:29:05.240Z,7.66
2022-11-17T15:31:31.920Z,7.59
2022-11-17T15:33:58.473Z,7.59
2022-11-17T15:36:26.389Z,7.40
2022-11-17T15:38:53.590Z,7.36
2022-11-17T15:41:21.265Z,7.05
2022-11-17T15:43:48.061Z,7.30
2022-11-17T15:46:17.469Z,7.62
2022-11-17T15:48:46.318Z,7.48
2022-11-17T15:51:18.037Z,7.25
2022-11-17T15:53:46.800Z,7.34
2022-11-17T15:56:22.756Z,7.36
2022-11-17T15:58:57.828Z,7.58
2022-11-17T16:01:25.070Z,7.69
2022-11-17T16:03:52.814Z,7.73
2022-11-17T16:06:19.958Z,7.67
2022-11-17T16:08:46.698Z,7.58
2022-11-17T16:11:13.987Z,7.85
2022-11-17T16:13:41.051Z,7.84
2022-11-17T16:16:12.242Z,7.87
2022-11-17T16:18:42.936Z,7.97
2022-11-17T16:21:14.243Z,8.05
2022-11-17T16:23:43.131Z,8.18
2022-11-17T16:26:11.786Z,8.21
2022-11-17T16:28:42.064Z,8.18
2022-11-17T16:31:26.611Z,8.23
2022-11-17T16:33:56.023Z,8.25
2022-11-17T16:36:24.878Z,8.35
2022-11-17T16:39:01.878Z,8.61
2022-11-17T16:41:32.427Z,8.42
2022-11-17T16:43:59.831Z,8.05
2022-11-17T16:46:32.510Z,8.16
